Wind From: 11-12-2017 12:03 Until: 12-12-2017 06:00 warning for: Wind Level: Orange info button

Power and phone distribution networks may be disrupted for relatively long periods., Roofs and chimneys can be damaged. , Tree branches may break. , Vehicles can be deported. , Traffic may be disrupted, particularly on secondary roads in forest areas. Limit your trips. , Limit your speed in highway driving, especially if you drive a vehicle or hitch sensitive to wind. , Do not go for walks in forests or along the coast., In town, be vigilant against possible falling objects., Do not work on roofs and do not touch any electrical line fallen on the ground., Store or secure sensitive objects to wind or likely to be damaged., Always install power generators outside buildings. 


Meteo18 Weather Cam more information Meteo18 Weather Cam


Thunder radar more information blitzortung!


Rain radar more information rain snow radar


Visit our other weather sites:

Template documentation
and downloads

And another site



Weather Underground History page Text

Daily Summary for May 27, 2017 Units:  English    Metric   Both
« Previous Day
Next Day »
Daily Weekly Monthly Yearly Custom
  High: Low: Average:
Temperature: 87.6 °F 61.2 °F 74.8 °F
Dew Point: 68.5 °F 57.6 °F 62.1 °F
Humidity: 90 % 37 % 67 %
Wind Speed: 11 mph 0 mph 1.8 mph
Wind Gust: 13 mph - -
Wind:- - South
Pressure: 30.1 in 30 in -
Precipitation: 0 in    
Historical Graphs
 
 
Tabular Data for May 27, 2017
Time Temperature Dew Point Pressure Wind Wind Speed Wind Gust Humidity Rainfall Rate (Hourly)
00:02 66.9 °F 60.3 °F 30 in WNW 1 mph 2 mph 79 % 0 in
00:07 66.9 °F 60.3 °F 30 in WNW 2 mph 2 mph 79 % 0 in
00:12 66.9 °F 60.3 °F 30 in Calm   2 mph 79 % 0 in
00:17 67.1 °F 60.1 °F 30 in Calm   2 mph 78 % 0 in
00:22 67.3 °F 60.3 °F 30 in Calm   2 mph 78 % 0 in
00:32 66.7 °F 60.1 °F 30 in Calm   2 mph 79 % 0 in
00:42 66.2 °F 60.3 °F 30 in WNW 2 mph 2 mph 81 % 0 in
00:52 65.5 °F 59.9 °F 30 in WNW 1 mph 2 mph 82 % 0 in
00:57 66 °F 60.1 °F 30 in WNW 2 mph 2 mph 81 % 0 in
01:02 66.4 °F 60.4 °F 30 in Calm   2 mph 81 % 0 in
01:12 65.7 °F 60.4 °F 30 in Calm   2 mph 83 % 0 in
01:17 66.2 °F 60.6 °F 30 in Calm   2 mph 82 % 0 in
01:22 66.7 °F 60.4 °F 30 in NNW 2 mph 2 mph 80 % 0 in
01:32 65.8 °F 59.9 °F 30 in WNW 2 mph 2 mph 81 % 0 in
01:37 65.5 °F 59.9 °F 30 in WNW 3 mph 3 mph 82 % 0 in
01:42 65.1 °F 59.9 °F 30 in WNW 1 mph 3 mph 83 % 0 in
01:47 64.9 °F 59.7 °F 30 in WNW 2 mph 3 mph 83 % 0 in
01:52 64.8 °F 59.5 °F 30 in WNW 2 mph 3 mph 83 % 0 in
01:57 65.1 °F 60.1 °F 30 in Calm   3 mph 84 % 0 in
02:02 65.5 °F 60.3 °F 30 in Calm   3 mph 83 % 0 in
02:07 65.1 °F 59.5 °F 30 in WNW 2 mph 2 mph 82 % 0 in
02:12 64.6 °F 59.7 °F 30 in West 1 mph 2 mph 84 % 0 in
02:22 64.6 °F 59.7 °F 30 in WNW 2 mph 2 mph 84 % 0 in
02:32 64 °F 59.4 °F 30 in WNW 1 mph 2 mph 85 % 0 in
02:37 63.9 °F 59.2 °F 30 in Calm   2 mph 85 % 0 in
02:42 64 °F 59.7 °F 30 in Calm   2 mph 86 % 0 in
02:52 64 °F 59.4 °F 30 in Calm   2 mph 85 % 0 in
03:02 64.2 °F 59.9 °F 30 in Calm     86 % 0 in
03:12 65.8 °F 60.6 °F 30 in Calm     83 % 0 in
03:17 66.6 °F 60.6 °F 30 in WSW 3 mph 3 mph 81 % 0 in
03:22 67.3 °F 61 °F 30 in SW 3 mph 3 mph 80 % 0 in
03:32 67.6 °F 61 °F 30 in Calm   5 mph 79 % 0 in
03:52 65.5 °F 60.3 °F 30 in Calm   2 mph 83 % 0 in
03:57 65.1 °F 59.9 °F 30 in Calm   1 mph 83 % 0 in
04:02 64.9 °F 59.9 °F 30 in Calm   1 mph 84 % 0 in
04:12 64.4 °F 59.7 °F 30 in East 1 mph   85 % 0 in
04:17 64.2 °F 59.9 °F 30 in East 1 mph 2 mph 86 % 0 in
04:22 64.6 °F 60.3 °F 30 in ENE 1 mph 2 mph 86 % 0 in
04:32 64 °F 59.4 °F 30 in Calm   2 mph 85 % 0 in
04:42 63.1 °F 59.2 °F 30 in Calm   2 mph 87 % 0 in
04:47 62.6 °F 59 °F 30 in Calm   1 mph 88 % 0 in
04:52 62.6 °F 59 °F 30 in Calm   1 mph 88 % 0 in
04:57 62.6 °F 59.4 °F 30 in Calm   1 mph 89 % 0 in
05:02 63 °F 59.7 °F 30 in Calm   1 mph 89 % 0 in
05:12 62.2 °F 58.6 °F 30 in ENE 2 mph 3 mph 88 % 0 in
05:22 61.2 °F 58.3 °F 30 in ENE 4 mph 5 mph 90 % 0 in
05:32 63.3 °F 60.3 °F 30 in Calm   5 mph 90 % 0 in
05:37 64.6 °F 60.3 °F 30 in SSW 3 mph 5 mph 86 % 0 in
05:42 65.7 °F 60.1 °F 30 in SW 2 mph 5 mph 82 % 0 in
05:52 66.2 °F 60.3 °F 30 in SW 2 mph 9 mph 81 % 0 in
06:02 66.2 °F 59.9 °F 30 in SSW 2 mph 6 mph 80 % 0 in
06:12 64.9 °F 59 °F 30 in Calm   5 mph 81 % 0 in
06:17 64 °F 58.8 °F 30 in ESE 1 mph 5 mph 83 % 0 in
06:22 63.1 °F 58.6 °F 30 in Calm   2 mph 85 % 0 in
06:32 63 °F 59 °F 30 in SE 1 mph 2 mph 87 % 0 in
06:37 63 °F 59 °F 30 in SSE 1 mph 3 mph 87 % 0 in
06:42 63 °F 59 °F 30 in East 2 mph 3 mph 87 % 0 in
06:52 63.9 °F 59.5 °F 30 in SE 2 mph 3 mph 86 % 0 in
07:02 64 °F 59.7 °F 30 in Calm   3 mph 86 % 0 in
07:07 64.2 °F 59.9 °F 30 in South 1 mph 3 mph 86 % 0 in
07:17 65.1 °F 60.8 °F 30 in Calm   3 mph 86 % 0 in
07:22 65.7 °F 60.6 °F 30 in Calm   2 mph 84 % 0 in
07:32 66 °F 61 °F 30 in Calm   4 mph 84 % 0 in
07:42 66.6 °F 61.2 °F 30 in SSE 2 mph 4 mph 83 % 0 in
07:47 66.7 °F 61.3 °F 30 in SW 1 mph 4 mph 83 % 0 in
07:52 66.9 °F 61.5 °F 30 in SSW 1 mph 4 mph 83 % 0 in
08:02 67.3 °F 61.5 °F 30 in Calm   6 mph 82 % 0 in
08:12 68.2 °F 62.1 °F 30.1 in Calm   4 mph 81 % 0 in
08:17 68.2 °F 61.7 °F 30.1 in SSW 2 mph 4 mph 80 % 0 in
08:22 68.2 °F 62.1 °F 30.1 in SE 1 mph 6 mph 81 % 0 in
08:32 68.9 °F 62.4 °F 30.1 in SW 6 mph 6 mph 80 % 0 in
08:42 69.4 °F 62.6 °F 30.1 in SSW 2 mph 8 mph 79 % 0 in
08:52 70.2 °F 62.6 °F 30.1 in SSW 2 mph 8 mph 77 % 0 in
08:57 70.5 °F 62.6 °F 30.1 in SW 2 mph 8 mph 76 % 0 in
09:12 71.2 °F 62.1 °F 30.1 in SSW 6 mph 9 mph 73 % 0 in
09:22 71.8 °F 62.6 °F 30.1 in WSW 4 mph 9 mph 73 % 0 in
09:32 72.1 °F 62.6 °F 30.1 in SW 8 mph 9 mph 72 % 0 in
09:42 72.3 °F 62.1 °F 30.1 in SW 5 mph 9 mph 70 % 0 in
09:47 72.5 °F 62.2 °F 30.1 in SSW 2 mph 9 mph 70 % 0 in
09:52 73 °F 62.6 °F 30.1 in SW 7 mph 10 mph 70 % 0 in
10:02 73.6 °F 63.7 °F 30.1 in SSW 5 mph 8 mph 71 % 0 in
10:07 73.9 °F 63.5 °F 30.1 in WSW 6 mph 8 mph 70 % 0 in
10:12 74.1 °F 63 °F 30.1 in WSW 5 mph 7 mph 68 % 0 in
10:17 74.1 °F 63 °F 30.1 in SW 5 mph 7 mph 68 % 0 in
10:22 74.5 °F 62.8 °F 30.1 in South 2 mph 8 mph 67 % 0 in
10:32 75 °F 62.4 °F 30.1 in SW 9 mph 9 mph 65 % 0 in
10:37 75 °F 62.4 °F 30.1 in WSW 5 mph 9 mph 65 % 0 in
10:42 75.2 °F 62.6 °F 30.1 in SW 5 mph 12 mph 65 % 0 in
10:47 75.6 °F 63 °F 30.1 in SE 5 mph 12 mph 65 % 0 in
10:52 75.9 °F 62.4 °F 30.1 in SW 6 mph 8 mph 63 % 0 in
10:57 76.3 °F 63.1 °F 30.1 in South 4 mph 8 mph 64 % 0 in
11:02 76.5 °F 63.3 °F 30.1 in WSW 5 mph 8 mph 64 % 0 in
11:12 76.6 °F 63.5 °F 30.1 in WSW 4 mph 8 mph 64 % 0 in
11:17 77.2 °F 63.1 °F 30.1 in SW 3 mph 8 mph 62 % 0 in
11:22 77.5 °F 63 °F 30.1 in SSW 3 mph 8 mph 61 % 0 in
11:32 77.5 °F 63 °F 30.1 in WSW 7 mph 8 mph 61 % 0 in
11:42 78.3 °F 62.8 °F 30.1 in WSW 3 mph 8 mph 59 % 0 in
11:52 78.6 °F 63.1 °F 30.1 in SSW 11 mph 11 mph 59 % 0 in
11:57 78.8 °F 62.8 °F 30.1 in SSW 5 mph 7 mph 58 % 0 in
12:02 79.2 °F 63.7 °F 30.1 in SW 9 mph 13 mph 59 % 0 in
12:12 79.3 °F 63.3 °F 30.1 in South 1 mph 12 mph 58 % 0 in
12:17 80.1 °F 63.5 °F 30.1 in SSW 2 mph 12 mph 57 % 0 in
12:22 79.9 °F 63.3 °F 30.1 in SW 5 mph 9 mph 57 % 0 in
12:32 79.5 °F 63 °F 30.1 in WSW 8 mph 9 mph 57 % 0 in
12:37 79.5 °F 63.5 °F 30.1 in South 5 mph 10 mph 58 % 0 in
12:42 80.1 °F 63.5 °F 30.1 in SSE 1 mph 10 mph 57 % 0 in
12:52 80.4 °F 62.8 °F 30.1 in SSE 2 mph 9 mph 55 % 0 in
13:02 81.1 °F 63.5 °F 30.1 in West 4 mph 9 mph 55 % 0 in
13:12 81.5 °F 63.9 °F 30.1 in SW 6 mph 9 mph 55 % 0 in
13:17 81.3 °F 64 °F 30.1 in South 5 mph 9 mph 56 % 0 in
13:22 81.9 °F 64 °F 30.1 in SSW 2 mph 11 mph 55 % 0 in
13:32 81.9 °F 63 °F 30.1 in SE 1 mph 11 mph 53 % 0 in
13:37 82.2 °F 62.8 °F 30.1 in South 1 mph 11 mph 52 % 0 in
13:42 82.6 °F 63.1 °F 30.1 in ESE 6 mph 8 mph 52 % 0 in
13:52 82.8 °F 63.9 °F 30.1 in SE 3 mph 9 mph 53 % 0 in
14:02 83.1 °F 63.1 °F 30.1 in SSW 2 mph 9 mph 51 % 0 in
14:12 83.7 °F 63.7 °F 30.1 in South 1 mph 8 mph 51 % 0 in
14:17 84.2 °F 64 °F 30.1 in SW 1 mph 8 mph 51 % 0 in
14:22 84.2 °F 63.5 °F 30.1 in SE 2 mph 7 mph 50 % 0 in
14:32 83.8 °F 63.9 °F 30.1 in SW 4 mph 9 mph 51 % 0 in
14:42 83.8 °F 62.6 °F 30.1 in SW 3 mph 9 mph 49 % 0 in
14:47 84.4 °F 63.1 °F 30.1 in SSE 5 mph 9 mph 49 % 0 in
14:52 83.8 °F 62.6 °F 30.1 in South 2 mph 6 mph 49 % 0 in
14:57 83.8 °F 62.6 °F 30.1 in East 3 mph 8 mph 49 % 0 in
15:02 84.4 °F 63.1 °F 30.1 in SSE 2 mph 8 mph 49 % 0 in
15:12 84.9 °F 64.2 °F 30.1 in ENE 3 mph 8 mph 50 % 0 in
15:17 84.7 °F 64 °F 30.1 in East 5 mph 6 mph 50 % 0 in
15:22 84 °F 63.3 °F 30.1 in East 2 mph 6 mph 50 % 0 in
15:32 84.6 °F 63.3 °F 30.1 in Calm   6 mph 49 % 0 in
15:42 84.9 °F 63 °F 30.1 in East 2 mph 6 mph 48 % 0 in
15:47 85.1 °F 62.1 °F 30.1 in ESE 3 mph 6 mph 46 % 0 in
15:52 85.1 °F 61.3 °F 30.1 in Calm   5 mph 45 % 0 in
16:02 85.3 °F 62.8 °F 30.1 in ENE 1 mph 8 mph 47 % 0 in
16:12 86 °F 62.8 °F 30.1 in ENE 2 mph 8 mph 46 % 0 in
16:17 85.8 °F 60.8 °F 30.1 in East 5 mph 5 mph 43 % 0 in
16:27 86 °F 58.8 °F 30 in SW 1 mph 8 mph 40 % 0 in
16:32 86.9 °F 61.7 °F 30 in South 1 mph 8 mph 43 % 0 in
16:37 87.1 °F 61.9 °F 30 in SSE 2 mph 8 mph 43 % 0 in
16:42 87.1 °F 62.6 °F 30 in ENE 4 mph 8 mph 44 % 0 in
16:47 87.3 °F 59.9 °F 30 in SE 1 mph 8 mph 40 % 0 in
16:52 87.3 °F 59.9 °F 30 in ESE 1 mph 8 mph 40 % 0 in
16:57 87.4 °F 59.4 °F 30 in South 4 mph 8 mph 39 % 0 in
17:02 87.6 °F 61 °F 30 in East 4 mph 8 mph 41 % 0 in
17:12 87.1 °F 59.2 °F 30 in Calm   8 mph 39 % 0 in
17:17 87.4 °F 60.8 °F 30 in East 6 mph 7 mph 41 % 0 in
17:27 87.4 °F 58.6 °F 30 in SSE 2 mph 7 mph 38 % 0 in
17:32 87.1 °F 59.2 °F 30 in ESE 2 mph 7 mph 39 % 0 in
17:42 87.1 °F 57.6 °F 30 in SSW 5 mph 7 mph 37 % 0 in
17:47 87.3 °F 58.6 °F 30 in ESE 2 mph 8 mph 38 % 0 in
17:52 87.4 °F 60.1 °F 30 in South 3 mph 8 mph 40 % 0 in
17:57 87.4 °F 58.6 °F 30 in SSE 2 mph 5 mph 38 % 0 in
18:02 87.4 °F 60.1 °F 30 in SSW 2 mph 5 mph 40 % 0 in
18:12 86.9 °F 57.6 °F 30 in SE 3 mph 5 mph 37 % 0 in
18:17 86.7 °F 59.5 °F 30 in Calm   5 mph 40 % 0 in
18:22 86.9 °F 59.7 °F 30 in Calm   5 mph 40 % 0 in
18:32 86.7 °F 59.5 °F 30 in Calm   4 mph 40 % 0 in
18:42 86.5 °F 59.4 °F 30 in SSW 2 mph 3 mph 40 % 0 in
18:47 86.4 °F 60.6 °F 30 in Calm   3 mph 42 % 0 in
18:52 86.4 °F 59.9 °F 30 in SSW 1 mph 5 mph 41 % 0 in
19:02 85.8 °F 62.1 °F 30 in SE 1 mph 5 mph 45 % 0 in
19:12 86 °F 62.2 °F 30 in Calm   5 mph 45 % 0 in
19:22 86.2 °F 61.7 °F 30 in ESE 1 mph 3 mph 44 % 0 in
19:27 85.8 °F 61.3 °F 30 in Calm   2 mph 44 % 0 in
19:32 85.8 °F 61.3 °F 30 in Calm   2 mph 44 % 0 in
19:37 85.3 °F 62.2 °F 30 in Calm   2 mph 46 % 0 in
19:42 84.9 °F 65.3 °F 30 in Calm   2 mph 52 % 0 in
19:47 84.7 °F 67.8 °F 30 in Calm   2 mph 57 % 0 in
19:52 84 °F 67.1 °F 30 in Calm   2 mph 57 % 0 in
19:57 83.7 °F 67.3 °F 30 in Calm   2 mph 58 % 0 in
20:02 83.1 °F 66.4 °F 30 in Calm   1 mph 57 % 0 in
20:12 82.6 °F 66.4 °F 30 in Calm   1 mph 58 % 0 in
20:17 82 °F 66.7 °F 30 in Calm     60 % 0 in
20:22 81.9 °F 66.6 °F 30 in Calm   2 mph 60 % 0 in
20:27 81.5 °F 66.2 °F 30 in Calm   2 mph 60 % 0 in
20:32 81.1 °F 66.4 °F 30 in Calm   2 mph 61 % 0 in
20:37 81 °F 67.1 °F 30 in Calm   1 mph 63 % 0 in
20:42 81 °F 68.5 °F 30.1 in Calm     66 % 0 in
20:52 79.2 °F 66.4 °F 30.1 in Calm     65 % 0 in
20:57 78.6 °F 65.8 °F 30.1 in Calm     65 % 0 in
21:02 78.1 °F 65.3 °F 30.1 in Calm     65 % 0 in
21:12 77.5 °F 65.3 °F 30.1 in Calm     66 % 0 in
21:17 77.2 °F 65.3 °F 30.1 in Calm     67 % 0 in
21:27 76.3 °F 65.8 °F 30.1 in Calm     70 % 0 in
21:32 75.9 °F 65.8 °F 30.1 in Calm     71 % 0 in
21:42 75.6 °F 65.5 °F 30.1 in Calm     71 % 0 in
21:47 75.2 °F 65.5 °F 30.1 in Calm     72 % 0 in
21:52 75 °F 65.8 °F 30.1 in Calm     73 % 0 in
21:57 74.8 °F 66 °F 30.1 in Calm     74 % 0 in
22:02 74.5 °F 66.4 °F 30.1 in Calm     76 % 0 in
22:12 73.9 °F 67.1 °F 30.1 in NNE 2 mph   79 % 0 in
22:22 73.8 °F 66.4 °F 30.1 in Calm   3 mph 78 % 0 in
22:27 73 °F 66.6 °F 30.1 in Calm   3 mph 80 % 0 in
22:32 72.5 °F 65.7 °F 30.1 in WNW 1 mph 3 mph 79 % 0 in
22:42 71.4 °F 65.3 °F 30.1 in WNW 1 mph 2 mph 81 % 0 in
22:52 71.4 °F 65.3 °F 30.1 in North 1 mph 2 mph 81 % 0 in
22:57 71.6 °F 65.5 °F 30.1 in Calm   1 mph 81 % 0 in
23:02 72 °F 65.5 °F 30.1 in NNW 1 mph 1 mph 80 % 0 in
23:12 71.4 °F 64.9 °F 30.1 in Calm   1 mph 80 % 0 in
23:17 70.9 °F 64.8 °F 30.1 in NNE 1 mph 1 mph 81 % 0 in
23:22 70.7 °F 65.3 °F 30.1 in Calm   2 mph 83 % 0 in
23:32 70 °F 64.6 °F 30.1 in Calm   2 mph 83 % 0 in
23:37 70 °F 64.2 °F 30.1 in Calm   2 mph 82 % 0 in
23:42 69.6 °F 64.2 °F 30.1 in Calm   2 mph 83 % 0 in
23:47 70 °F 64.2 °F 30.1 in WNW 1 mph 2 mph 82 % 0 in
23:52 69.3 °F 63.9 °F 30.1 in WNW 1 mph 1 mph 83 % 0 in
23:57 69.1 °F 64.4 °F 30.1 in Calm   2 mph 85 % 0 in
Meteo18
Compliments of Weather Underground - 4 mb

Script developed by  Jim McMurry - jmcmurry@mwt.net Adapted for the template by  Wim van der Kuil - Leuven-Template.eu

You find our weather info also at:

European Weather Network

Weather Underground

Equipment we use:

Weather-station
Davis Vue

Weather-program
Meteohub

Weather-server
Raspberry PI 2 B+

Provider
1 and 1

Davis Vue

Meteohub

Raspberry PI 2 B+

1 and 1